sensor_id;sensor_type;location;lat;lon;timestamp;P1;durP1;ratioP1;P2;durP2;ratioP2
55815;SDS011;41744;52.404;16.942;2023-09-18T00:00:55;18.42;;;9.52;;
55815;SDS011;41744;52.404;16.942;2023-09-18T00:03:22;15.35;;;9.20;;
55815;SDS011;41744;52.404;16.942;2023-09-18T00:05:50;14.07;;;8.30;;
55815;SDS011;41744;52.404;16.942;2023-09-18T00:08:16;15.85;;;8.95;;
55815;SDS011;41744;52.404;16.942;2023-09-18T00:10:43;17.92;;;8.50;;
55815;SDS011;41744;52.404;16.942;2023-09-18T00:13:12;15.18;;;9.27;;
55815;SDS011;41744;52.404;16.942;2023-09-18T00:15:38;14.60;;;8.52;;
55815;SDS011;41744;52.404;16.942;2023-09-18T00:18:06;16.92;;;9.30;;
55815;SDS011;41744;52.404;16.942;2023-09-18T00:20:33;17.75;;;8.88;;
55815;SDS011;41744;52.404;16.942;2023-09-18T00:23:00;18.85;;;8.82;;
55815;SDS011;41744;52.404;16.942;2023-09-18T00:25:26;14.88;;;9.27;;
55815;SDS011;41744;52.404;16.942;2023-09-18T00:27:52;26.98;;;9.30;;
55815;SDS011;41744;52.404;16.942;2023-09-18T00:30:18;20.77;;;8.75;;
55815;SDS011;41744;52.404;16.942;2023-09-18T00:32:44;16.63;;;9.52;;
55815;SDS011;41744;52.404;16.942;2023-09-18T00:35:12;14.57;;;8.45;;
55815;SDS011;41744;52.404;16.942;2023-09-18T00:37:38;14.98;;;9.07;;
55815;SDS011;41744;52.404;16.942;2023-09-18T00:40:04;15.43;;;8.68;;
55815;SDS011;41744;52.404;16.942;2023-09-18T00:42:30;16.15;;;8.75;;
55815;SDS011;41744;52.404;16.942;2023-09-18T00:44:57;16.50;;;9.15;;
55815;SDS011;41744;52.404;16.942;2023-09-18T00:47:23;17.65;;;8.95;;
55815;SDS011;41744;52.404;16.942;2023-09-18T00:49:50;13.60;;;8.30;;
55815;SDS011;41744;52.404;16.942;2023-09-18T00:52:17;16.30;;;8.85;;
55815;SDS011;41744;52.404;16.942;2023-09-18T00:54:43;13.70;;;8.75;;
55815;SDS011;41744;52.404;16.942;2023-09-18T00:57:10;19.33;;;9.05;;
55815;SDS011;41744;52.404;16.942;2023-09-18T00:59:37;19.02;;;9.18;;
55815;SDS011;41744;52.404;16.942;2023-09-18T01:02:03;14.20;;;8.45;;
55815;SDS011;41744;52.404;16.942;2023-09-18T01:04:29;17.73;;;8.48;;
55815;SDS011;41744;52.404;16.942;2023-09-18T01:06:58;13.77;;;8.82;;
55815;SDS011;41744;52.404;16.942;2023-09-18T01:09:26;13.85;;;8.55;;
55815;SDS011;41744;52.404;16.942;2023-09-18T01:14:48;14.35;;;8.63;;
55815;SDS011;41744;52.404;16.942;2023-09-18T01:17:16;17.05;;;9.32;;
55815;SDS011;41744;52.404;16.942;2023-09-18T01:19:45;18.48;;;9.52;;
55815;SDS011;41744;52.404;16.942;2023-09-18T01:22:15;17.02;;;9.55;;
55815;SDS011;41744;52.404;16.942;2023-09-18T01:24:42;17.27;;;9.55;;
55815;SDS011;41744;52.404;16.942;2023-09-18T01:27:09;15.32;;;9.15;;
55815;SDS011;41744;52.404;16.942;2023-09-18T01:29:35;13.75;;;8.82;;
55815;SDS011;41744;52.404;16.942;2023-09-18T01:32:01;15.85;;;8.93;;
55815;SDS011;41744;52.404;16.942;2023-09-18T01:34:34;14.75;;;8.82;;
55815;SDS011;41744;52.404;16.942;2023-09-18T01:37:01;14.73;;;8.93;;
55815;SDS011;41744;52.404;16.942;2023-09-18T01:39:28;17.67;;;9.20;;
55815;SDS011;41744;52.404;16.942;2023-09-18T01:41:59;14.55;;;9.05;;
55815;SDS011;41744;52.404;16.942;2023-09-18T01:44:26;13.35;;;9.10;;
55815;SDS011;41744;52.404;16.942;2023-09-18T01:46:53;14.82;;;8.63;;
55815;SDS011;41744;52.404;16.942;2023-09-18T01:49:31;15.25;;;9.10;;
55815;SDS011;41744;52.404;16.942;2023-09-18T01:51:58;17.42;;;9.35;;
55815;SDS011;41744;52.404;16.942;2023-09-18T01:54:24;14.52;;;8.52;;
55815;SDS011;41744;52.404;16.942;2023-09-18T01:56:50;18.27;;;9.18;;
55815;SDS011;41744;52.404;16.942;2023-09-18T01:59:17;18.08;;;9.20;;
55815;SDS011;41744;52.404;16.942;2023-09-18T02:01:43;15.93;;;8.52;;
55815;SDS011;41744;52.404;16.942;2023-09-18T02:04:09;18.30;;;9.13;;
55815;SDS011;41744;52.404;16.942;2023-09-18T02:06:35;14.27;;;9.02;;
55815;SDS011;41744;52.404;16.942;2023-09-18T02:09:02;15.73;;;9.43;;
55815;SDS011;41744;52.404;16.942;2023-09-18T02:11:37;16.27;;;9.15;;
55815;SDS011;41744;52.404;16.942;2023-09-18T02:14:04;14.13;;;8.98;;
55815;SDS011;41744;52.404;16.942;2023-09-18T02:16:32;14.00;;;9.27;;
55815;SDS011;41744;52.404;16.942;2023-09-18T02:18:58;17.13;;;9.23;;
55815;SDS011;41744;52.404;16.942;2023-09-18T02:21:24;15.75;;;9.40;;
55815;SDS011;41744;52.404;16.942;2023-09-18T02:23:51;14.07;;;8.90;;
55815;SDS011;41744;52.404;16.942;2023-09-18T02:26:17;14.43;;;8.90;;
55815;SDS011;41744;52.404;16.942;2023-09-18T02:28:44;15.23;;;9.88;;
55815;SDS011;41744;52.404;16.942;2023-09-18T02:31:10;16.00;;;9.07;;
55815;SDS011;41744;52.404;16.942;2023-09-18T02:33:36;14.45;;;9.20;;
55815;SDS011;41744;52.404;16.942;2023-09-18T02:36:03;16.95;;;9.48;;
55815;SDS011;41744;52.404;16.942;2023-09-18T02:38:29;14.45;;;9.38;;
55815;SDS011;41744;52.404;16.942;2023-09-18T02:40:55;17.52;;;9.70;;
55815;SDS011;41744;52.404;16.942;2023-09-18T02:43:22;14.15;;;8.73;;
55815;SDS011;41744;52.404;16.942;2023-09-18T02:45:48;16.60;;;9.75;;
55815;SDS011;41744;52.404;16.942;2023-09-18T02:48:14;15.65;;;9.13;;
55815;SDS011;41744;52.404;16.942;2023-09-18T02:50:40;17.10;;;9.95;;
55815;SDS011;41744;52.404;16.942;2023-09-18T02:53:07;16.90;;;10.10;;
55815;SDS011;41744;52.404;16.942;2023-09-18T02:55:34;18.50;;;10.77;;
55815;SDS011;41744;52.404;16.942;2023-09-18T02:58:00;13.85;;;9.75;;
55815;SDS011;41744;52.404;16.942;2023-09-18T03:00:26;20.42;;;11.10;;
55815;SDS011;41744;52.404;16.942;2023-09-18T03:02:52;18.42;;;10.60;;
55815;SDS011;41744;52.404;16.942;2023-09-18T03:05:18;19.10;;;11.40;;
55815;SDS011;41744;52.404;16.942;2023-09-18T03:07:44;20.83;;;11.60;;
55815;SDS011;41744;52.404;16.942;2023-09-18T03:10:10;22.77;;;12.10;;
55815;SDS011;41744;52.404;16.942;2023-09-18T03:12:39;20.05;;;11.75;;
55815;SDS011;41744;52.404;16.942;2023-09-18T03:15:05;20.30;;;11.85;;
55815;SDS011;41744;52.404;16.942;2023-09-18T03:17:31;21.58;;;11.55;;
55815;SDS011;41744;52.404;16.942;2023-09-18T03:19:58;20.13;;;12.50;;
55815;SDS011;41744;52.404;16.942;2023-09-18T03:22:24;22.45;;;12.15;;
55815;SDS011;41744;52.404;16.942;2023-09-18T03:24:50;20.25;;;11.77;;
55815;SDS011;41744;52.404;16.942;2023-09-18T03:27:16;20.15;;;12.32;;
55815;SDS011;41744;52.404;16.942;2023-09-18T03:29:42;23.25;;;12.18;;
55815;SDS011;41744;52.404;16.942;2023-09-18T03:32:08;20.90;;;12.75;;
55815;SDS011;41744;52.404;16.942;2023-09-18T03:34:37;21.55;;;12.30;;
55815;SDS011;41744;52.404;16.942;2023-09-18T03:37:03;18.80;;;11.82;;
55815;SDS011;41744;52.404;16.942;2023-09-18T03:39:29;23.95;;;12.75;;
55815;SDS011;41744;52.404;16.942;2023-09-18T03:41:55;20.42;;;12.63;;
55815;SDS011;41744;52.404;16.942;2023-09-18T03:44:21;21.17;;;11.93;;
55815;SDS011;41744;52.404;16.942;2023-09-18T03:46:48;19.58;;;12.15;;
55815;SDS011;41744;52.404;16.942;2023-09-18T03:49:14;21.30;;;12.38;;
55815;SDS011;41744;52.404;16.942;2023-09-18T03:51:40;22.90;;;12.68;;
55815;SDS011;41744;52.404;16.942;2023-09-18T03:54:06;19.75;;;12.23;;
55815;SDS011;41744;52.404;16.942;2023-09-18T03:56:32;21.42;;;12.35;;
55815;SDS011;41744;52.404;16.942;2023-09-18T03:58:57;22.48;;;12.80;;
55815;SDS011;41744;52.404;16.942;2023-09-18T04:01:26;19.35;;;12.18;;
55815;SDS011;41744;52.404;16.942;2023-09-18T04:03:52;20.05;;;12.45;;
55815;SDS011;41744;52.404;16.942;2023-09-18T04:06:20;20.05;;;12.23;;
55815;SDS011;41744;52.404;16.942;2023-09-18T04:08:46;23.50;;;13.10;;
55815;SDS011;41744;52.404;16.942;2023-09-18T04:11:12;20.42;;;13.30;;
55815;SDS011;41744;52.404;16.942;2023-09-18T04:13:38;24.85;;;12.43;;
55815;SDS011;41744;52.404;16.942;2023-09-18T04:16:04;23.27;;;13.00;;
55815;SDS011;41744;52.404;16.942;2023-09-18T04:18:30;23.20;;;12.68;;
55815;SDS011;41744;52.404;16.942;2023-09-18T04:20:56;18.40;;;12.02;;
55815;SDS011;41744;52.404;16.942;2023-09-18T04:23:23;20.63;;;13.00;;
55815;SDS011;41744;52.404;16.942;2023-09-18T04:25:50;22.17;;;12.77;;
55815;SDS011;41744;52.404;16.942;2023-09-18T04:28:17;19.52;;;12.43;;
55815;SDS011;41744;52.404;16.942;2023-09-18T04:30:44;19.52;;;12.10;;
55815;SDS011;41744;52.404;16.942;2023-09-18T04:33:10;18.10;;;11.82;;
55815;SDS011;41744;52.404;16.942;2023-09-18T04:35:39;22.73;;;12.93;;
55815;SDS011;41744;52.404;16.942;2023-09-18T04:38:06;24.88;;;12.98;;
55815;SDS011;41744;52.404;16.942;2023-09-18T04:40:33;21.67;;;13.38;;
55815;SDS011;41744;52.404;16.942;2023-09-18T04:42:59;20.83;;;12.38;;
55815;SDS011;41744;52.404;16.942;2023-09-18T04:45:25;23.58;;;12.68;;
55815;SDS011;41744;52.404;16.942;2023-09-18T04:47:52;19.88;;;12.80;;
55815;SDS011;41744;52.404;16.942;2023-09-18T04:50:19;21.65;;;12.70;;
55815;SDS011;41744;52.404;16.942;2023-09-18T04:52:45;19.10;;;12.65;;
55815;SDS011;41744;52.404;16.942;2023-09-18T04:55:12;24.05;;;13.43;;
55815;SDS011;41744;52.404;16.942;2023-09-18T04:57:39;30.17;;;14.77;;
55815;SDS011;41744;52.404;16.942;2023-09-18T05:00:05;22.77;;;12.88;;
55815;SDS011;41744;52.404;16.942;2023-09-18T05:02:37;19.60;;;12.57;;
55815;SDS011;41744;52.404;16.942;2023-09-18T05:05:04;21.40;;;13.68;;
55815;SDS011;41744;52.404;16.942;2023-09-18T05:07:30;23.25;;;12.63;;
55815;SDS011;41744;52.404;16.942;2023-09-18T05:09:57;20.90;;;13.05;;
55815;SDS011;41744;52.404;16.942;2023-09-18T05:12:23;18.00;;;12.35;;
55815;SDS011;41744;52.404;16.942;2023-09-18T05:14:49;24.45;;;12.70;;
55815;SDS011;41744;52.404;16.942;2023-09-18T05:17:16;20.13;;;13.15;;
55815;SDS011;41744;52.404;16.942;2023-09-18T05:19:43;19.77;;;12.73;;
55815;SDS011;41744;52.404;16.942;2023-09-18T05:22:09;21.02;;;12.85;;
55815;SDS011;41744;52.404;16.942;2023-09-18T05:24:36;20.38;;;13.10;;
55815;SDS011;41744;52.404;16.942;2023-09-18T05:27:03;22.00;;;12.93;;
55815;SDS011;41744;52.404;16.942;2023-09-18T05:29:31;18.48;;;12.13;;
55815;SDS011;41744;52.404;16.942;2023-09-18T05:31:57;17.85;;;11.80;;
55815;SDS011;41744;52.404;16.942;2023-09-18T05:34:23;18.83;;;12.27;;
55815;SDS011;41744;52.404;16.942;2023-09-18T05:36:49;24.30;;;13.75;;
55815;SDS011;41744;52.404;16.942;2023-09-18T05:39:15;20.13;;;13.25;;
55815;SDS011;41744;52.404;16.942;2023-09-18T05:41:41;20.75;;;12.90;;
55815;SDS011;41744;52.404;16.942;2023-09-18T05:44:07;20.30;;;13.75;;
55815;SDS011;41744;52.404;16.942;2023-09-18T05:46:34;23.10;;;13.63;;
55815;SDS011;41744;52.404;16.942;2023-09-18T05:49:01;24.17;;;12.85;;
55815;SDS011;41744;52.404;16.942;2023-09-18T05:51:27;20.48;;;12.98;;
55815;SDS011;41744;52.404;16.942;2023-09-18T05:53:53;21.50;;;13.23;;
55815;SDS011;41744;52.404;16.942;2023-09-18T05:56:19;21.77;;;12.77;;
55815;SDS011;41744;52.404;16.942;2023-09-18T05:58:46;21.95;;;12.43;;
55815;SDS011;41744;52.404;16.942;2023-09-18T06:01:12;18.42;;;12.65;;
55815;SDS011;41744;52.404;16.942;2023-09-18T06:03:38;19.27;;;12.75;;
55815;SDS011;41744;52.404;16.942;2023-09-18T06:06:07;19.60;;;12.30;;
55815;SDS011;41744;52.404;16.942;2023-09-18T06:08:33;20.45;;;12.80;;
55815;SDS011;41744;52.404;16.942;2023-09-18T06:10:59;18.35;;;13.32;;
55815;SDS011;41744;52.404;16.942;2023-09-18T06:13:25;19.63;;;12.98;;
55815;SDS011;41744;52.404;16.942;2023-09-18T06:15:52;19.10;;;12.70;;
55815;SDS011;41744;52.404;16.942;2023-09-18T06:18:19;21.83;;;13.27;;
55815;SDS011;41744;52.404;16.942;2023-09-18T06:20:46;19.95;;;12.43;;
55815;SDS011;41744;52.404;16.942;2023-09-18T06:23:12;20.63;;;12.60;;
55815;SDS011;41744;52.404;16.942;2023-09-18T06:25:38;21.35;;;12.35;;
55815;SDS011;41744;52.404;16.942;2023-09-18T06:28:04;19.92;;;12.43;;
55815;SDS011;41744;52.404;16.942;2023-09-18T06:30:31;20.08;;;12.43;;
55815;SDS011;41744;52.404;16.942;2023-09-18T06:32:58;19.67;;;12.20;;
55815;SDS011;41744;52.404;16.942;2023-09-18T06:35:24;19.10;;;11.75;;
55815;SDS011;41744;52.404;16.942;2023-09-18T06:37:50;17.15;;;11.20;;
55815;SDS011;41744;52.404;16.942;2023-09-18T06:40:16;18.00;;;12.10;;
55815;SDS011;41744;52.404;16.942;2023-09-18T06:42:42;18.17;;;12.00;;
55815;SDS011;41744;52.404;16.942;2023-09-18T06:45:09;17.73;;;11.38;;
55815;SDS011;41744;52.404;16.942;2023-09-18T06:47:35;17.17;;;11.18;;
55815;SDS011;41744;52.404;16.942;2023-09-18T06:50:01;15.90;;;10.73;;
55815;SDS011;41744;52.404;16.942;2023-09-18T06:52:29;16.13;;;10.68;;
55815;SDS011;41744;52.404;16.942;2023-09-18T06:54:55;19.08;;;10.20;;
55815;SDS011;41744;52.404;16.942;2023-09-18T06:57:23;16.33;;;10.52;;
55815;SDS011;41744;52.404;16.942;2023-09-18T06:59:49;19.50;;;11.10;;
55815;SDS011;41744;52.404;16.942;2023-09-18T07:02:15;15.05;;;9.65;;
55815;SDS011;41744;52.404;16.942;2023-09-18T07:04:42;14.35;;;9.77;;
55815;SDS011;41744;52.404;16.942;2023-09-18T07:07:14;14.60;;;9.10;;
55815;SDS011;41744;52.404;16.942;2023-09-18T07:09:43;13.43;;;8.80;;
55815;SDS011;41744;52.404;16.942;2023-09-18T07:12:09;14.52;;;8.73;;
55815;SDS011;41744;52.404;16.942;2023-09-18T07:14:35;15.13;;;8.65;;
55815;SDS011;41744;52.404;16.942;2023-09-18T07:17:03;15.15;;;8.98;;
55815;SDS011;41744;52.404;16.942;2023-09-18T07:19:29;12.57;;;8.82;;
55815;SDS011;41744;52.404;16.942;2023-09-18T07:21:55;17.17;;;9.48;;
55815;SDS011;41744;52.404;16.942;2023-09-18T07:24:21;13.75;;;8.70;;
55815;SDS011;41744;52.404;16.942;2023-09-18T07:26:47;11.07;;;7.85;;
55815;SDS011;41744;52.404;16.942;2023-09-18T07:29:14;13.80;;;8.13;;
55815;SDS011;41744;52.404;16.942;2023-09-18T07:31:43;10.57;;;8.23;;
55815;SDS011;41744;52.404;16.942;2023-09-18T07:34:09;12.60;;;8.13;;
55815;SDS011;41744;52.404;16.942;2023-09-18T07:36:36;11.43;;;8.25;;
55815;SDS011;41744;52.404;16.942;2023-09-18T07:39:02;12.18;;;7.78;;
55815;SDS011;41744;52.404;16.942;2023-09-18T07:41:29;13.35;;;7.80;;
55815;SDS011;41744;52.404;16.942;2023-09-18T07:43:56;23.52;;;8.57;;
55815;SDS011;41744;52.404;16.942;2023-09-18T07:46:23;13.55;;;7.20;;
55815;SDS011;41744;52.404;16.942;2023-09-18T07:48:49;11.23;;;7.35;;
55815;SDS011;41744;52.404;16.942;2023-09-18T07:51:15;13.00;;;8.93;;
55815;SDS011;41744;52.404;16.942;2023-09-18T07:53:42;15.93;;;7.50;;
55815;SDS011;41744;52.404;16.942;2023-09-18T07:56:08;11.13;;;7.82;;
55815;SDS011;41744;52.404;16.942;2023-09-18T07:58:34;14.35;;;7.10;;
55815;SDS011;41744;52.404;16.942;2023-09-18T08:01:03;12.63;;;8.25;;
55815;SDS011;41744;52.404;16.942;2023-09-18T08:03:30;11.82;;;7.75;;
55815;SDS011;41744;52.404;16.942;2023-09-18T08:05:56;10.57;;;7.28;;
55815;SDS011;41744;52.404;16.942;2023-09-18T08:08:22;11.82;;;7.18;;
55815;SDS011;41744;52.404;16.942;2023-09-18T08:10:49;12.27;;;7.45;;
55815;SDS011;41744;52.404;16.942;2023-09-18T08:13:15;9.13;;;6.93;;
55815;SDS011;41744;52.404;16.942;2023-09-18T08:15:41;12.70;;;7.10;;
55815;SDS011;41744;52.404;16.942;2023-09-18T08:18:08;13.18;;;7.80;;
55815;SDS011;41744;52.404;16.942;2023-09-18T08:20:35;17.90;;;7.85;;
55815;SDS011;41744;52.404;16.942;2023-09-18T08:23:02;9.88;;;7.15;;
55815;SDS011;41744;52.404;16.942;2023-09-18T08:25:30;15.82;;;8.07;;
55815;SDS011;41744;52.404;16.942;2023-09-18T08:27:56;13.40;;;7.30;;
55815;SDS011;41744;52.404;16.942;2023-09-18T08:30:22;14.57;;;7.97;;
55815;SDS011;41744;52.404;16.942;2023-09-18T08:32:49;11.40;;;7.82;;
55815;SDS011;41744;52.404;16.942;2023-09-18T08:35:15;10.38;;;7.07;;
55815;SDS011;41744;52.404;16.942;2023-09-18T08:37:41;9.90;;;7.07;;
55815;SDS011;41744;52.404;16.942;2023-09-18T08:40:11;11.18;;;7.53;;
55815;SDS011;41744;52.404;16.942;2023-09-18T08:42:39;12.15;;;7.10;;
55815;SDS011;41744;52.404;16.942;2023-09-18T08:45:06;13.32;;;7.40;;
55815;SDS011;41744;52.404;16.942;2023-09-18T08:47:34;15.02;;;7.95;;
55815;SDS011;41744;52.404;16.942;2023-09-18T08:50:00;10.68;;;6.95;;
55815;SDS011;41744;52.404;16.942;2023-09-18T08:52:27;11.45;;;7.72;;
55815;SDS011;41744;52.404;16.942;2023-09-18T08:54:53;12.20;;;7.43;;
55815;SDS011;41744;52.404;16.942;2023-09-18T08:57:21;10.70;;;6.70;;
55815;SDS011;41744;52.404;16.942;2023-09-18T08:59:47;9.63;;;7.28;;
55815;SDS011;41744;52.404;16.942;2023-09-18T09:02:13;11.07;;;7.00;;
55815;SDS011;41744;52.404;16.942;2023-09-18T09:04:39;9.50;;;7.25;;
55815;SDS011;41744;52.404;16.942;2023-09-18T09:07:06;11.18;;;6.75;;
55815;SDS011;41744;52.404;16.942;2023-09-18T09:09:32;11.65;;;6.63;;
55815;SDS011;41744;52.404;16.942;2023-09-18T09:11:58;10.38;;;6.80;;
55815;SDS011;41744;52.404;16.942;2023-09-18T09:14:25;13.07;;;7.70;;
55815;SDS011;41744;52.404;16.942;2023-09-18T09:16:54;11.43;;;7.50;;
55815;SDS011;41744;52.404;16.942;2023-09-18T09:19:32;11.60;;;7.90;;
55815;SDS011;41744;52.404;16.942;2023-09-18T09:22:00;11.50;;;7.82;;
55815;SDS011;41744;52.404;16.942;2023-09-18T09:24:36;9.85;;;7.03;;
55815;SDS011;41744;52.404;16.942;2023-09-18T09:27:03;12.18;;;7.35;;
55815;SDS011;41744;52.404;16.942;2023-09-18T09:29:29;8.90;;;6.68;;
55815;SDS011;41744;52.404;16.942;2023-09-18T09:31:56;11.73;;;7.85;;
55815;SDS011;41744;52.404;16.942;2023-09-18T09:34:26;9.50;;;7.07;;
55815;SDS011;41744;52.404;16.942;2023-09-18T09:36:56;10.13;;;7.00;;
55815;SDS011;41744;52.404;16.942;2023-09-18T09:39:22;10.40;;;7.38;;
55815;SDS011;41744;52.404;16.942;2023-09-18T09:41:50;11.77;;;7.28;;
55815;SDS011;41744;52.404;16.942;2023-09-18T09:44:17;11.65;;;7.55;;
55815;SDS011;41744;52.404;16.942;2023-09-18T09:46:47;13.05;;;7.28;;
55815;SDS011;41744;52.404;16.942;2023-09-18T09:49:13;11.27;;;6.97;;
55815;SDS011;41744;52.404;16.942;2023-09-18T09:51:41;10.23;;;7.00;;
55815;SDS011;41744;52.404;16.942;2023-09-18T09:54:07;10.82;;;7.40;;
55815;SDS011;41744;52.404;16.942;2023-09-18T09:57:06;10.13;;;7.20;;
55815;SDS011;41744;52.404;16.942;2023-09-18T09:59:27;10.50;;;7.03;;
55815;SDS011;41744;52.404;16.942;2023-09-18T10:01:54;10.20;;;6.90;;
55815;SDS011;41744;52.404;16.942;2023-09-18T10:04:21;12.05;;;7.20;;
55815;SDS011;41744;52.404;16.942;2023-09-18T10:06:51;13.05;;;6.55;;
55815;SDS011;41744;52.404;16.942;2023-09-18T10:09:19;11.30;;;7.10;;
55815;SDS011;41744;52.404;16.942;2023-09-18T10:11:46;15.60;;;7.00;;
55815;SDS011;41744;52.404;16.942;2023-09-18T10:14:19;11.57;;;6.78;;
55815;SDS011;41744;52.404;16.942;2023-09-18T10:16:51;10.82;;;6.55;;
55815;SDS011;41744;52.404;16.942;2023-09-18T10:21:57;7.97;;;6.60;;
55815;SDS011;41744;52.404;16.942;2023-09-18T10:24:32;10.10;;;6.72;;
55815;SDS011;41744;52.404;16.942;2023-09-18T10:27:01;10.32;;;6.72;;
55815;SDS011;41744;52.404;16.942;2023-09-18T10:29:29;10.70;;;6.05;;
55815;SDS011;41744;52.404;16.942;2023-09-18T10:31:55;11.75;;;6.60;;
55815;SDS011;41744;52.404;16.942;2023-09-18T10:34:22;9.45;;;6.60;;
55815;SDS011;41744;52.404;16.942;2023-09-18T10:36:52;10.45;;;6.47;;
55815;SDS011;41744;52.404;16.942;2023-09-18T10:39:18;8.30;;;6.18;;
55815;SDS011;41744;52.404;16.942;2023-09-18T10:41:49;9.60;;;6.50;;
55815;SDS011;41744;52.404;16.942;2023-09-18T10:44:16;9.32;;;6.47;;
55815;SDS011;41744;52.404;16.942;2023-09-18T10:46:44;11.32;;;6.57;;
55815;SDS011;41744;52.404;16.942;2023-09-18T10:49:10;12.73;;;6.22;;
55815;SDS011;41744;52.404;16.942;2023-09-18T10:51:37;11.23;;;6.38;;
55815;SDS011;41744;52.404;16.942;2023-09-18T10:54:10;10.50;;;5.90;;
55815;SDS011;41744;52.404;16.942;2023-09-18T10:56:36;11.45;;;6.55;;
55815;SDS011;41744;52.404;16.942;2023-09-18T10:59:05;10.73;;;6.07;;
55815;SDS011;41744;52.404;16.942;2023-09-18T11:01:32;10.00;;;6.30;;
55815;SDS011;41744;52.404;16.942;2023-09-18T11:04:02;9.43;;;5.88;;
55815;SDS011;41744;52.404;16.942;2023-09-18T11:06:28;22.70;;;6.45;;
55815;SDS011;41744;52.404;16.942;2023-09-18T11:09:02;9.60;;;6.40;;
55815;SDS011;41744;52.404;16.942;2023-09-18T11:11:29;9.10;;;6.00;;
55815;SDS011;41744;52.404;16.942;2023-09-18T11:13:56;9.80;;;6.00;;
55815;SDS011;41744;52.404;16.942;2023-09-18T11:18:52;17.58;;;6.75;;
55815;SDS011;41744;52.404;16.942;2023-09-18T11:21:19;9.73;;;5.70;;
55815;SDS011;41744;52.404;16.942;2023-09-18T11:23:48;7.57;;;5.82;;
55815;SDS011;41744;52.404;16.942;2023-09-18T11:26:23;7.97;;;5.82;;
55815;SDS011;41744;52.404;16.942;2023-09-18T11:28:49;9.95;;;5.72;;
55815;SDS011;41744;52.404;16.942;2023-09-18T11:31:15;14.98;;;6.00;;
55815;SDS011;41744;52.404;16.942;2023-09-18T11:33:42;10.23;;;6.30;;
55815;SDS011;41744;52.404;16.942;2023-09-18T11:36:13;11.60;;;6.22;;
55815;SDS011;41744;52.404;16.942;2023-09-18T11:39:00;13.05;;;6.25;;
55815;SDS011;41744;52.404;16.942;2023-09-18T11:41:33;9.48;;;6.32;;
55815;SDS011;41744;52.404;16.942;2023-09-18T11:46:38;14.38;;;5.88;;
55815;SDS011;41744;52.404;16.942;2023-09-18T11:49:08;12.30;;;6.53;;
55815;SDS011;41744;52.404;16.942;2023-09-18T11:51:35;10.23;;;5.80;;
55815;SDS011;41744;52.404;16.942;2023-09-18T11:54:02;9.93;;;5.93;;
55815;SDS011;41744;52.404;16.942;2023-09-18T11:56:39;8.18;;;6.00;;
55815;SDS011;41744;52.404;16.942;2023-09-18T11:59:05;10.88;;;5.95;;
55815;SDS011;41744;52.404;16.942;2023-09-18T12:01:32;12.55;;;6.03;;
55815;SDS011;41744;52.404;16.942;2023-09-18T12:04:01;10.50;;;6.13;;
55815;SDS011;41744;52.404;16.942;2023-09-18T12:06:32;9.38;;;5.35;;
55815;SDS011;41744;52.404;16.942;2023-09-18T12:08:58;11.95;;;5.65;;
55815;SDS011;41744;52.404;16.942;2023-09-18T12:11:24;6.85;;;5.10;;
55815;SDS011;41744;52.404;16.942;2023-09-18T12:13:51;7.00;;;5.05;;
55815;SDS011;41744;52.404;16.942;2023-09-18T12:16:17;10.68;;;5.15;;
55815;SDS011;41744;52.404;16.942;2023-09-18T12:18:47;10.30;;;5.43;;
55815;SDS011;41744;52.404;16.942;2023-09-18T12:21:14;9.07;;;5.65;;
55815;SDS011;41744;52.404;16.942;2023-09-18T12:23:42;9.63;;;4.95;;
55815;SDS011;41744;52.404;16.942;2023-09-18T12:26:10;13.80;;;7.72;;
55815;SDS011;41744;52.404;16.942;2023-09-18T12:28:38;8.65;;;5.55;;
55815;SDS011;41744;52.404;16.942;2023-09-18T12:31:04;6.85;;;4.90;;
55815;SDS011;41744;52.404;16.942;2023-09-18T12:33:34;8.65;;;5.22;;
55815;SDS011;41744;52.404;16.942;2023-09-18T12:36:02;7.88;;;5.35;;
55815;SDS011;41744;52.404;16.942;2023-09-18T12:38:28;6.18;;;4.70;;
55815;SDS011;41744;52.404;16.942;2023-09-18T12:40:55;6.78;;;5.20;;
55815;SDS011;41744;52.404;16.942;2023-09-18T12:43:23;13.18;;;5.50;;
55815;SDS011;41744;52.404;16.942;2023-09-18T12:45:50;9.70;;;5.13;;
55815;SDS011;41744;52.404;16.942;2023-09-18T12:48:16;13.30;;;5.85;;
55815;SDS011;41744;52.404;16.942;2023-09-18T12:50:43;13.15;;;5.65;;
55815;SDS011;41744;52.404;16.942;2023-09-18T12:53:09;11.70;;;5.55;;
55815;SDS011;41744;52.404;16.942;2023-09-18T12:55:36;11.35;;;5.80;;
55815;SDS011;41744;52.404;16.942;2023-09-18T12:58:02;8.38;;;5.68;;
55815;SDS011;41744;52.404;16.942;2023-09-18T13:00:32;7.68;;;5.32;;
55815;SDS011;41744;52.404;16.942;2023-09-18T13:02:58;11.32;;;5.63;;
55815;SDS011;41744;52.404;16.942;2023-09-18T13:05:24;9.25;;;5.38;;
55815;SDS011;41744;52.404;16.942;2023-09-18T13:07:51;9.38;;;5.78;;
55815;SDS011;41744;52.404;16.942;2023-09-18T13:10:18;10.02;;;5.72;;
55815;SDS011;41744;52.404;16.942;2023-09-18T13:12:51;9.70;;;5.68;;
55815;SDS011;41744;52.404;16.942;2023-09-18T13:15:28;11.18;;;6.45;;
55815;SDS011;41744;52.404;16.942;2023-09-18T13:17:55;11.27;;;6.00;;
55815;SDS011;41744;52.404;16.942;2023-09-18T13:20:25;10.68;;;6.07;;
55815;SDS011;41744;52.404;16.942;2023-09-18T13:22:53;10.15;;;5.85;;
55815;SDS011;41744;52.404;16.942;2023-09-18T13:25:20;10.70;;;6.22;;
55815;SDS011;41744;52.404;16.942;2023-09-18T13:27:50;7.53;;;5.85;;
55815;SDS011;41744;52.404;16.942;2023-09-18T13:30:16;10.38;;;5.97;;
55815;SDS011;41744;52.404;16.942;2023-09-18T13:32:43;10.13;;;6.25;;
55815;SDS011;41744;52.404;16.942;2023-09-18T13:35:10;13.38;;;6.85;;
55815;SDS011;41744;52.404;16.942;2023-09-18T13:37:38;10.82;;;6.07;;
55815;SDS011;41744;52.404;16.942;2023-09-18T13:40:05;14.82;;;6.65;;
55815;SDS011;41744;52.404;16.942;2023-09-18T13:42:43;10.00;;;6.50;;
55815;SDS011;41744;52.404;16.942;2023-09-18T13:45:09;12.38;;;7.05;;
55815;SDS011;41744;52.404;16.942;2023-09-18T13:47:36;13.52;;;7.10;;
55815;SDS011;41744;52.404;16.942;2023-09-18T13:50:03;12.15;;;7.10;;
55815;SDS011;41744;52.404;16.942;2023-09-18T13:52:30;10.15;;;7.05;;
55815;SDS011;41744;52.404;16.942;2023-09-18T13:54:56;12.93;;;7.07;;
55815;SDS011;41744;52.404;16.942;2023-09-18T13:57:22;11.52;;;6.97;;
55815;SDS011;41744;52.404;16.942;2023-09-18T13:59:50;14.32;;;7.18;;
55815;SDS011;41744;52.404;16.942;2023-09-18T14:02:17;16.95;;;7.25;;
55815;SDS011;41744;52.404;16.942;2023-09-18T14:04:44;11.73;;;7.05;;
55815;SDS011;41744;52.404;16.942;2023-09-18T14:07:10;11.80;;;7.60;;
55815;SDS011;41744;52.404;16.942;2023-09-18T14:09:37;14.43;;;8.30;;
55815;SDS011;41744;52.404;16.942;2023-09-18T14:12:03;10.80;;;8.10;;
55815;SDS011;41744;52.404;16.942;2023-09-18T14:14:32;13.35;;;7.97;;
55815;SDS011;41744;52.404;16.942;2023-09-18T14:16:58;20.60;;;7.72;;
55815;SDS011;41744;52.404;16.942;2023-09-18T14:19:24;13.88;;;8.38;;
55815;SDS011;41744;52.404;16.942;2023-09-18T14:21:50;13.43;;;8.13;;
55815;SDS011;41744;52.404;16.942;2023-09-18T14:24:17;17.50;;;7.88;;
55815;SDS011;41744;52.404;16.942;2023-09-18T14:26:47;14.55;;;8.48;;
55815;SDS011;41744;52.404;16.942;2023-09-18T14:29:13;10.85;;;7.70;;